Saint Anthony Village, Minnesota
Current Conditions -  °F | °C
As of 12:53 PM on Thursday 27 Nov 2014 (Local Time) from KMIC Reporting Station
Clear Clear  
Wind Chill:   Ceiling: Unl
Heat Index:   Visibility: 10mi
Dew Point: -5°   Wind: 5mph
Humidity: 53%   Direction: 300°WNW
Pressure: 30.46"   Gusts: NA
Location:  45.0516°N, 93.2549°W
Report Text: KMIC 271853Z 30004KT 10SM CLR M13/M21 A3046 RMK AO2 SLP335 T11281206
Loading
Personal Weather Stations






























Interactive Weather Map New forecast layout! Learn more

10-Day Weather Forecast

Advertisements
Track Severe Weather on mobile